Time;durP1;ratioP1;P1;durP2;ratioP2;P2;SDS_P1;SDS_P2;PMS_P1;PMS_P2;Temp;Humidity;BMP_temperature;BMP_pressure;BME280_temperature;BME280_humidity;BME280_pressure;Samples;Min_cycle;Max_cycle;Signal;HPM_P1;HPM_P2
2022/08/11 00:01:49;;;;;;;12.93;6.57;;;;;;;;;;5048648;28;20210;-72
2022/08/11 00:04:15;;;;;;;11.40;6.33;;;;;;;;;;5042634;28;20187;-72
2022/08/11 00:06:43;;;;;;;12.07;5.67;;;;;;;;;;5009105;28;20199;-71
2022/08/11 00:09:10;;;;;;;13.47;6.37;;;;;;;;;;5048651;28;20190;-71
2022/08/11 00:11:44;;;;;;;12.77;6.13;;;;;;;;;;5047858;28;20281;-72
2022/08/11 00:14:17;;;;;;;12.03;5.23;;;;;;;;;;5049104;28;20186;-71
2022/08/11 00:16:52;;;;;;;9.97;5.90;;;;;;;;;;5031810;28;20195;-72
2022/08/11 00:19:20;;;;;;;10.77;5.63;;;;;;;;;;5029340;28;20210;-71
2022/08/11 00:22:07;;;;;;;9.87;5.30;;;;;;;;;;5049091;28;20297;-72
2022/08/11 00:24:34;;;;;;;12.23;5.67;;;;;;;;;;5048994;28;20192;-71
2022/08/11 00:27:18;;;;;;;9.30;4.77;;;;;;;;;;5033987;28;20178;-72
2022/08/11 00:29:52;;;;;;;10.17;5.73;;;;;;;;;;5031513;28;20524;-71
2022/08/11 00:32:37;;;;;;;8.10;5.40;;;;;;;;;;5033634;28;20210;-72
2022/08/11 00:35:06;;;;;;;8.67;4.57;;;;;;;;;;5030716;28;20230;-71
2022/08/11 00:37:53;;;;;;;10.30;4.83;;;;;;;;;;5020535;28;20273;-72
2022/08/11 00:40:35;;;;;;;10.33;5.57;;;;;;;;;;5031061;28;20197;-72
2022/08/11 00:43:10;;;;;;;8.10;4.53;;;;;;;;;;5031222;28;20222;-72
2022/08/11 00:46:05;;;;;;;8.13;4.93;;;;;;;;;;5048950;28;20206;-71
2022/08/11 00:48:47;;;;;;;8.67;5.00;;;;;;;;;;5048458;28;20220;-72
2022/08/11 00:51:29;;;;;;;8.47;4.43;;;;;;;;;;5049175;28;20194;-72
2022/08/11 00:54:26;;;;;;;9.27;4.90;;;;;;;;;;5044102;28;20333;-72
2022/08/11 00:57:10;;;;;;;7.53;4.97;;;;;;;;;;5048043;28;20228;-72
2022/08/11 00:59:57;;;;;;;8.00;4.30;;;;;;;;;;5048635;28;20198;-72
2022/08/11 01:02:41;;;;;;;7.23;4.43;;;;;;;;;;5048256;28;20214;-71
2022/08/11 01:05:17;;;;;;;9.27;4.93;;;;;;;;;;5030712;28;20209;-71
2022/08/11 01:08:04;;;;;;;10.77;5.23;;;;;;;;;;5048924;28;20248;-71
2022/08/11 01:11:11;;;;;;;8.80;4.80;;;;;;;;;;5047242;28;20190;-71
2022/08/11 01:13:47;;;;;;;9.47;5.73;;;;;;;;;;5046654;28;20651;-71
2022/08/11 01:16:32;;;;;;;8.93;5.23;;;;;;;;;;5032857;28;20201;-71
2022/08/11 01:19:14;;;;;;;10.10;5.53;;;;;;;;;;5049530;28;20190;-71
2022/08/11 01:22:17;;;;;;;9.00;5.37;;;;;;;;;;5030155;28;20301;-71
2022/08/11 01:24:44;;;;;;;8.97;5.63;;;;;;;;;;4958034;28;20237;-71
2022/08/11 01:27:26;;;;;;;9.43;5.97;;;;;;;;;;5032672;28;20218;-71
2022/08/11 01:30:05;;;;;;;9.83;5.50;;;;;;;;;;5048764;28;20203;-71
2022/08/11 01:32:58;;;;;;;8.27;5.40;;;;;;;;;;5048060;28;20565;-71
2022/08/11 01:35:44;;;;;;;8.77;5.40;;;;;;;;;;5033941;28;21232;-71
2022/08/11 01:38:35;;;;;;;7.83;5.10;;;;;;;;;;5032854;28;20174;-71
2022/08/11 01:41:05;;;;;;;9.23;5.90;;;;;;;;;;5028889;28;20670;-71
2022/08/11 01:46:38;;;;;;;8.30;5.00;;;;;;;;;;5047820;28;20668;-71
2022/08/11 01:49:09;;;;;;;9.97;4.90;;;;;;;;;;5030553;28;20190;-71
2022/08/11 01:52:05;;;;;;;8.13;5.00;;;;;;;;;;5033442;28;20207;-71
2022/08/11 01:54:51;;;;;;;10.37;5.37;;;;;;;;;;5048024;28;20277;-71
2022/08/11 01:57:37;;;;;;;7.70;4.87;;;;;;;;;;5047691;28;20202;-71
2022/08/11 02:00:10;;;;;;;5.70;4.60;;;;;;;;;;5044097;28;20194;-71
2022/08/11 02:02:57;;;;;;;10.63;4.97;;;;;;;;;;5032861;28;20215;-71
2022/08/11 02:05:43;;;;;;;9.50;4.43;;;;;;;;;;5033643;28;20195;-71
2022/08/11 02:08:27;;;;;;;7.30;4.83;;;;;;;;;;5051627;28;20187;-71
2022/08/11 02:11:32;;;;;;;8.43;4.43;;;;;;;;;;5051234;28;20197;-71
2022/08/11 02:14:19;;;;;;;7.70;4.67;;;;;;;;;;5047080;28;20188;-71
2022/08/11 02:16:47;;;;;;;8.70;4.53;;;;;;;;;;5051357;28;20673;-71
2022/08/11 02:25:13;;;;;;;9.80;4.63;;;;;;;;;;5039293;28;20186;-71
2022/08/11 02:27:44;;;;;;;8.87;5.00;;;;;;;;;;5033678;28;20194;-72
2022/08/11 02:30:12;;;;;;;7.23;4.93;;;;;;;;;;5033017;28;20939;-71
2022/08/11 02:35:41;;;;;;;9.40;4.97;;;;;;;;;;5047405;28;20223;-72
2022/08/11 02:38:17;;;;;;;6.20;4.43;;;;;;;;;;5030861;28;20205;-71
2022/08/11 02:40:47;;;;;;;7.10;4.30;;;;;;;;;;5048777;28;20543;-71
2022/08/11 02:43:27;;;;;;;8.97;4.73;;;;;;;;;;5050501;28;20215;-71
2022/08/11 02:46:20;;;;;;;9.17;5.30;;;;;;;;;;5022555;28;20252;-72
2022/08/11 02:52:03;;;;;;;7.47;4.60;;;;;;;;;;5048615;28;20206;-71
2022/08/11 02:54:39;;;;;;;9.17;4.53;;;;;;;;;;5049488;28;20194;-71
2022/08/11 02:57:28;;;;;;;7.13;4.70;;;;;;;;;;5038099;28;20233;-71
2022/08/11 03:00:08;;;;;;;8.27;4.53;;;;;;;;;;5031022;28;21019;-72
2022/08/11 03:02:49;;;;;;;7.90;4.83;;;;;;;;;;5014981;28;20581;-72
2022/08/11 03:05:29;;;;;;;7.70;4.97;;;;;;;;;;5046028;28;20187;-71
2022/08/11 03:08:32;;;;;;;7.30;4.47;;;;;;;;;;5035295;28;20201;-72
2022/08/11 03:16:52;;;;;;;7.87;5.20;;;;;;;;;;5050166;28;20193;-72
2022/08/11 03:19:48;;;;;;;7.70;5.03;;;;;;;;;;5021652;28;20257;-72
2022/08/11 03:22:21;;;;;;;8.77;5.00;;;;;;;;;;5032155;28;20307;-72
2022/08/11 03:24:51;;;;;;;7.23;4.30;;;;;;;;;;5032433;28;20191;-72
2022/08/11 03:27:37;;;;;;;7.63;4.80;;;;;;;;;;5032463;28;20199;-72
2022/08/11 03:30:45;;;;;;;7.60;4.60;;;;;;;;;;5050110;28;20315;-72
2022/08/11 03:36:46;;;;;;;8.70;4.90;;;;;;;;;;5047006;28;20645;-72
2022/08/11 03:39:51;;;;;;;6.90;4.60;;;;;;;;;;5046930;28;20198;-72
2022/08/11 03:42:41;;;;;;;7.83;4.50;;;;;;;;;;5049970;28;20210;-72
2022/08/11 03:45:20;;;;;;;10.07;4.67;;;;;;;;;;5049908;28;20198;-72
2022/08/11 03:48:23;;;;;;;6.70;4.93;;;;;;;;;;5031424;28;20183;-72
2022/08/11 03:50:50;;;;;;;7.80;4.50;;;;;;;;;;5048781;28;20190;-72
2022/08/11 03:53:39;;;;;;;8.40;5.10;;;;;;;;;;5048448;28;20194;-72
2022/08/11 03:56:25;;;;;;;8.50;4.50;;;;;;;;;;5031770;28;20194;-72
2022/08/11 03:59:09;;;;;;;8.47;4.33;;;;;;;;;;5037872;28;20178;-72
2022/08/11 04:02:11;;;;;;;8.87;4.57;;;;;;;;;;5069095;28;20277;-71
2022/08/11 04:04:42;;;;;;;7.83;4.67;;;;;;;;;;4978823;28;20988;-71
2022/08/11 04:07:18;;;;;;;7.50;4.90;;;;;;;;;;5039634;28;20233;-71
2022/08/11 04:09:45;;;;;;;6.47;4.57;;;;;;;;;;5069217;28;20265;-71
2022/08/11 04:12:14;;;;;;;11.07;4.60;;;;;;;;;;5069147;28;20277;-72
2022/08/11 04:18:18;;;;;;;8.30;4.80;;;;;;;;;;5024377;28;20601;-72
2022/08/11 04:20:50;;;;;;;8.53;5.30;;;;;;;;;;5057860;28;20273;-72
2022/08/11 04:23:53;;;;;;;18.27;6.83;;;;;;;;;;5010738;28;20317;-71
2022/08/11 04:27:08;;;;;;;25.17;7.90;;;;;;;;;;5019294;28;20190;-71
2022/08/11 04:29:46;;;;;;;32.03;8.30;;;;;;;;;;5046960;28;20281;-72
2022/08/11 04:32:35;;;;;;;26.43;8.57;;;;;;;;;;5048816;28;20191;-72
2022/08/11 04:35:06;;;;;;;33.40;8.67;;;;;;;;;;5048306;28;20303;-72
2022/08/11 04:37:35;;;;;;;25.30;8.97;;;;;;;;;;5060957;28;20194;-72
2022/08/11 04:40:02;;;;;;;35.20;9.27;;;;;;;;;;5050806;28;20222;-72
2022/08/11 04:45:24;;;;;;;22.30;9.23;;;;;;;;;;5068901;28;20197;-72
2022/08/11 05:02:56;;;;;;;20.27;9.73;;;;;;;;;;5019444;28;20210;-81
2022/08/11 05:05:39;;;;;;;18.50;8.70;;;;;;;;;;5044059;28;20199;-80
2022/08/11 05:08:23;;;;;;;20.23;9.37;;;;;;;;;;5048418;28;20215;-85
2022/08/11 05:10:56;;;;;;;18.30;8.87;;;;;;;;;;5045091;28;20293;-75
2022/08/11 05:36:45;;;;;;;15.30;7.50;;;;;;;;;;5053057;28;20650;-74
2022/08/11 05:56:55;;;;;;;11.87;6.63;;;;;;;;;;5040085;28;20179;-75
2022/08/11 05:59:24;;;;;;;12.97;7.37;;;;;;;;;;5035246;28;20253;-75
2022/08/11 06:01:51;;;;;;;17.97;7.03;;;;;;;;;;5051840;28;20198;-78
2022/08/11 06:04:18;;;;;;;12.53;6.47;;;;;;;;;;5033991;28;20274;-87
2022/08/11 06:06:50;;;;;;;13.60;7.33;;;;;;;;;;5035203;28;20183;-84
2022/08/11 06:09:24;;;;;;;11.03;5.87;;;;;;;;;;5036010;28;20601;-80
2022/08/11 06:11:50;;;;;;;9.33;5.60;;;;;;;;;;5035737;28;20325;-81
2022/08/11 06:14:18;;;;;;;10.07;5.10;;;;;;;;;;5018161;28;20187;-83
2022/08/11 06:16:48;;;;;;;9.57;5.20;;;;;;;;;;5049694;28;20297;-75
2022/08/11 06:19:23;;;;;;;9.97;4.73;;;;;;;;;;5034926;28;20187;-72
2022/08/11 06:21:51;;;;;;;7.93;5.50;;;;;;;;;;5034013;28;20194;-76
2022/08/11 06:24:19;;;;;;;8.87;5.90;;;;;;;;;;5034081;28;20191;-77
2022/08/11 06:27:05;;;;;;;10.70;6.13;;;;;;;;;;5021471;28;20182;-81
2022/08/11 06:29:45;;;;;;;11.40;5.70;;;;;;;;;;5018434;28;20713;-76
2022/08/11 06:32:31;;;;;;;10.77;6.07;;;;;;;;;;5040972;28;20189;-81
2022/08/11 06:35:17;;;;;;;10.37;5.80;;;;;;;;;;5032227;28;20223;-79
2022/08/11 06:38:01;;;;;;;11.77;4.70;;;;;;;;;;5029952;28;20206;-84
2022/08/11 06:40:41;;;;;;;8.63;4.80;;;;;;;;;;5043736;28;20191;-80
2022/08/11 06:43:17;;;;;;;8.90;4.73;;;;;;;;;;5018366;28;20268;-78
2022/08/11 06:45:52;;;;;;;9.73;4.77;;;;;;;;;;5065078;28;20832;-85
2022/08/11 06:48:23;;;;;;;8.20;4.57;;;;;;;;;;5032846;28;20201;-74
2022/08/11 06:51:11;;;;;;;7.80;4.60;;;;;;;;;;5043635;28;20240;-79
2022/08/11 06:53:41;;;;;;;9.43;4.17;;;;;;;;;;5032939;28;20194;-80
2022/08/11 07:02:26;;;;;;;13.63;4.87;;;;;;;;;;5049754;28;20221;-80
2022/08/11 07:05:08;;;;;;;10.73;3.70;;;;;;;;;;5033586;28;20197;-80
2022/08/11 07:16:15;;;;;;;6.20;2.77;;;;;;;;;;5050229;28;20646;-81
2022/08/11 07:30:40;;;;;;;3.03;1.90;;;;;;;;;;5055790;28;20217;-82
2022/08/11 07:33:08;;;;;;;6.40;2.13;;;;;;;;;;5047319;28;20238;-81
2022/08/11 07:35:35;;;;;;;5.37;2.20;;;;;;;;;;4998054;28;20586;-78
2022/08/11 07:38:10;;;;;;;5.50;2.30;;;;;;;;;;5043877;28;20194;-78
2022/08/11 07:40:40;;;;;;;3.77;2.30;;;;;;;;;;5048399;28;20209;-79
2022/08/11 07:43:06;;;;;;;5.33;2.40;;;;;;;;;;5030495;28;20221;-79
2022/08/11 07:53:51;;;;;;;4.27;2.30;;;;;;;;;;5041323;28;20199;-77
2022/08/11 07:56:31;;;;;;;3.03;2.27;;;;;;;;;;5042521;28;20232;-78
2022/08/11 08:19:01;;;;;;;4.13;2.17;;;;;;;;;;5037255;28;20193;-66
2022/08/11 08:21:28;;;;;;;6.33;2.20;;;;;;;;;;5043783;28;20281;-66
2022/08/11 08:23:55;;;;;;;6.13;1.90;;;;;;;;;;5048565;28;20225;-66
2022/08/11 08:32:21;;;;;;;4.07;1.67;;;;;;;;;;5025078;28;20239;-66
2022/08/11 08:34:51;;;;;;;3.33;1.70;;;;;;;;;;5018773;28;20231;-65
2022/08/11 08:37:18;;;;;;;2.93;1.70;;;;;;;;;;5027443;28;20194;-64
2022/08/11 08:40:06;;;;;;;3.50;1.70;;;;;;;;;;5047837;28;20271;-64
2022/08/11 08:42:37;;;;;;;4.50;1.57;;;;;;;;;;5052851;28;20869;-65
2022/08/11 08:45:11;;;;;;;2.83;1.57;;;;;;;;;;5048970;28;20201;-65
2022/08/11 08:47:40;;;;;;;2.67;1.30;;;;;;;;;;5045267;28;20198;-65
2022/08/11 08:50:12;;;;;;;2.10;1.27;;;;;;;;;;5006138;28;20221;-66
2022/08/11 08:52:44;;;;;;;2.23;1.30;;;;;;;;;;5021281;28;20557;-66
2022/08/11 08:55:15;;;;;;;3.77;1.60;;;;;;;;;;5048278;28;20226;-65
2022/08/11 08:57:42;;;;;;;3.23;1.80;;;;;;;;;;5046194;28;20217;-66
2022/08/11 09:00:09;;;;;;;2.67;1.40;;;;;;;;;;5045107;28;20209;-65
2022/08/11 09:02:42;;;;;;;2.97;1.83;;;;;;;;;;5047436;28;20201;-65
2022/08/11 09:05:28;;;;;;;2.37;1.60;;;;;;;;;;5031615;28;20186;-65
2022/08/11 09:07:56;;;;;;;1.80;1.50;;;;;;;;;;5030141;28;20790;-66
2022/08/11 09:10:23;;;;;;;2.37;1.40;;;;;;;;;;5050842;28;20198;-66
2022/08/11 09:12:54;;;;;;;3.23;1.57;;;;;;;;;;5035316;28;20226;-66
2022/08/11 09:15:21;;;;;;;4.53;1.90;;;;;;;;;;5051335;28;20191;-65
2022/08/11 09:17:49;;;;;;;3.10;1.90;;;;;;;;;;5051411;28;20194;-66
2022/08/11 09:20:25;;;;;;;2.93;1.73;;;;;;;;;;5050395;28;20547;-66
2022/08/11 09:28:48;;;;;;;2.27;1.10;;;;;;;;;;5047870;28;20192;-67
2022/08/11 09:31:15;;;;;;;1.83;0.90;;;;;;;;;;5033005;28;20189;-64
2022/08/11 09:33:42;;;;;;;3.07;1.40;;;;;;;;;;5039717;28;20251;-67
2022/08/11 09:41:44;;;;;;;1.90;1.00;;;;;;;;;;5041799;28;20201;-65
2022/08/11 09:44:47;;;;;;;2.57;1.03;;;;;;;;;;5029490;28;20214;-65
2022/08/11 09:47:19;;;;;;;1.17;1.07;;;;;;;;;;5040741;28;20711;-64
2022/08/11 09:49:47;;;;;;;2.30;1.00;;;;;;;;;;5042864;28;20191;-64
2022/08/11 09:52:34;;;;;;;0.80;0.57;;;;;;;;;;5042778;28;20211;-65
2022/08/11 09:55:00;;;;;;;1.50;0.87;;;;;;;;;;5026008;28;20229;-62
2022/08/11 10:00:14;;;;;;;1.90;0.90;;;;;;;;;;5043788;28;20906;-64
2022/08/11 10:02:42;;;;;;;0.80;0.80;;;;;;;;;;5042118;28;20214;-63
2022/08/11 10:07:54;;;;;;;0.73;0.70;;;;;;;;;;5041676;28;20304;-74
2022/08/11 10:10:22;;;;;;;0.80;0.80;;;;;;;;;;5043709;28;20187;-80
2022/08/11 10:12:50;;;;;;;1.67;0.80;;;;;;;;;;5044905;28;20198;-75
2022/08/11 10:15:33;;;;;;;1.13;0.80;;;;;;;;;;5025708;28;20191;-72
2022/08/11 10:21:04;;;;;;;1.43;0.90;;;;;;;;;;5043800;28;20696;-82
2022/08/11 10:26:53;;;;;;;1.77;0.93;;;;;;;;;;5038988;28;20247;-68
2022/08/11 10:34:57;;;;;;;1.37;0.60;;;;;;;;;;5036097;28;20233;-69
2022/08/11 10:37:42;;;;;;;0.80;0.70;;;;;;;;;;5045827;28;20192;-71
2022/08/11 10:40:31;;;;;;;0.97;0.80;;;;;;;;;;5041065;28;20201;-75
2022/08/11 10:43:12;;;;;;;0.90;0.80;;;;;;;;;;5033460;28;20193;-73
2022/08/11 10:48:55;;;;;;;12.07;1.80;;;;;;;;;;5040649;28;20198;-79
2022/08/11 10:59:48;;;;;;;0.97;0.60;;;;;;;;;;5035871;28;20204;-74
2022/08/11 11:02:15;;;;;;;1.40;0.60;;;;;;;;;;5050954;28;20734;-80
2022/08/11 11:04:43;;;;;;;1.33;0.90;;;;;;;;;;5050897;28;20284;-74
2022/08/11 11:07:19;;;;;;;1.00;0.70;;;;;;;;;;5026303;28;20201;-86
2022/08/11 11:09:47;;;;;;;2.30;0.70;;;;;;;;;;5014037;28;20255;-81
2022/08/11 11:18:23;;;;;;;0.70;0.70;;;;;;;;;;5020975;28;20184;-87
2022/08/11 11:20:52;;;;;;;0.90;0.80;;;;;;;;;;5034017;28;20189;-77
2022/08/11 11:23:25;;;;;;;3.57;1.00;;;;;;;;;;5032534;28;20283;-71
2022/08/11 11:26:05;;;;;;;1.10;0.90;;;;;;;;;;5052063;28;20210;-77
2022/08/11 11:28:52;;;;;;;1.97;0.57;;;;;;;;;;5070396;28;20198;-76
2022/08/11 11:31:21;;;;;;;1.23;0.80;;;;;;;;;;5015869;28;20229;-75
2022/08/11 11:33:47;;;;;;;1.93;0.80;;;;;;;;;;5062163;28;20195;-75
2022/08/11 11:36:41;;;;;;;10.17;1.40;;;;;;;;;;5017293;28;20212;-76
2022/08/11 11:39:07;;;;;;;0.70;0.70;;;;;;;;;;5013264;28;20197;-76
2022/08/11 11:41:52;;;;;;;2.13;0.70;;;;;;;;;;5014474;28;20191;-76
2022/08/11 11:44:21;;;;;;;1.23;0.70;;;;;;;;;;5028588;28;20233;-75
2022/08/11 11:46:48;;;;;;;1.80;0.70;;;;;;;;;;5013211;28;20236;-76
2022/08/11 11:49:22;;;;;;;1.73;1.10;;;;;;;;;;5029746;28;20222;-76
2022/08/11 11:51:51;;;;;;;1.40;0.80;;;;;;;;;;5012975;28;20232;-75
2022/08/11 11:54:22;;;;;;;1.03;0.77;;;;;;;;;;5012847;28;20387;-76
2022/08/11 11:56:52;;;;;;;1.10;0.70;;;;;;;;;;5012844;28;20189;-76
2022/08/11 12:02:06;;;;;;;1.37;0.90;;;;;;;;;;5029163;28;20190;-77
2022/08/11 12:04:41;;;;;;;1.23;0.80;;;;;;;;;;5022398;28;20211;-76
2022/08/11 12:10:24;;;;;;;1.43;1.00;;;;;;;;;;5015572;28;20253;-72
2022/08/11 12:15:36;;;;;;;0.83;0.83;;;;;;;;;;5028966;28;20203;-72
2022/08/11 12:18:23;;;;;;;1.40;0.90;;;;;;;;;;5027325;28;20204;-72
2022/08/11 12:20:50;;;;;;;3.57;1.07;;;;;;;;;;5029454;28;20693;-73
2022/08/11 12:28:57;;;;;;;5.13;1.30;;;;;;;;;;5029222;28;20608;-71
2022/08/11 12:31:24;;;;;;;2.80;0.90;;;;;;;;;;5028410;28;20615;-72
2022/08/11 12:33:52;;;;;;;0.80;0.70;;;;;;;;;;5019116;28;20250;-71
2022/08/11 12:36:19;;;;;;;2.70;0.97;;;;;;;;;;5044832;28;20222;-71
2022/08/11 12:38:46;;;;;;;0.87;0.70;;;;;;;;;;5031263;28;20269;-70
2022/08/11 12:46:51;;;;;;;1.57;0.70;;;;;;;;;;5016264;28;20195;-72
2022/08/11 12:52:12;;;;;;;1.20;0.90;;;;;;;;;;5026150;28;20199;-71
2022/08/11 12:54:50;;;;;;;2.63;1.03;;;;;;;;;;5023077;28;20645;-75
2022/08/11 13:05:36;;;;;;;2.30;0.80;;;;;;;;;;5040896;28;20411;-72
2022/08/11 13:08:10;;;;;;;1.50;0.80;;;;;;;;;;5041398;28;20684;-74
2022/08/11 13:13:23;;;;;;;8.07;1.63;;;;;;;;;;5025247;28;20182;-69
2022/08/11 13:16:10;;;;;;;5.10;1.13;;;;;;;;;;5039094;28;20228;-72
2022/08/11 13:18:38;;;;;;;0.80;0.80;;;;;;;;;;5007396;28;20286;-79
2022/08/11 13:21:22;;;;;;;1.33;1.00;;;;;;;;;;5024633;28;20173;-79
2022/08/11 13:23:51;;;;;;;1.87;1.00;;;;;;;;;;5017902;28;20500;-75
2022/08/11 13:26:32;;;;;;;0.93;0.83;;;;;;;;;;5029203;28;20198;-78
2022/08/11 13:29:26;;;;;;;1.77;0.90;;;;;;;;;;5015304;28;20202;-85
2022/08/11 13:31:53;;;;;;;4.87;1.20;;;;;;;;;;5022869;28;20273;-80
2022/08/11 13:34:20;;;;;;;1.13;0.90;;;;;;;;;;5027063;28;20647;-79
2022/08/11 13:36:52;;;;;;;0.80;0.80;;;;;;;;;;5011809;28;20209;-78
2022/08/11 13:39:22;;;;;;;1.30;0.87;;;;;;;;;;5013346;28;20780;-76
2022/08/11 13:41:52;;;;;;;1.17;0.97;;;;;;;;;;5028118;28;20186;-76
2022/08/11 13:44:19;;;;;;;1.00;0.90;;;;;;;;;;5029018;28;20540;-77
2022/08/11 13:47:03;;;;;;;2.63;0.80;;;;;;;;;;5046687;28;20232;-77
2022/08/11 13:49:31;;;;;;;1.50;0.83;;;;;;;;;;5041709;28;20882;-77
2022/08/11 13:51:57;;;;;;;2.10;1.00;;;;;;;;;;5027742;28;20222;-78
2022/08/11 13:54:25;;;;;;;2.43;0.90;;;;;;;;;;4996875;28;20260;-75
2022/08/11 13:57:11;;;;;;;0.70;0.70;;;;;;;;;;5032907;28;20254;-75
2022/08/11 14:00:08;;;;;;;1.20;0.80;;;;;;;;;;5034640;28;20203;-75
2022/08/11 14:02:49;;;;;;;5.67;1.20;;;;;;;;;;5025344;28;20202;-73
2022/08/11 14:05:19;;;;;;;2.47;0.80;;;;;;;;;;5029800;28;20254;-84
2022/08/11 14:07:51;;;;;;;1.37;0.90;;;;;;;;;;5016993;28;20202;-84
2022/08/11 14:10:19;;;;;;;2.97;0.97;;;;;;;;;;5033092;28;20207;-84
2022/08/11 14:15:53;;;;;;;1.10;0.80;;;;;;;;;;5036737;28;20650;-84
2022/08/11 14:18:22;;;;;;;1.40;1.00;;;;;;;;;;5016546;28;20617;-85
2022/08/11 14:23:43;;;;;;;1.87;1.13;;;;;;;;;;5019905;28;20195;-84
2022/08/11 14:26:23;;;;;;;1.20;0.83;;;;;;;;;;5032956;28;20724;-74
2022/08/11 14:28:53;;;;;;;1.73;0.90;;;;;;;;;;5032201;28;21265;-73
2022/08/11 14:31:24;;;;;;;8.80;1.40;;;;;;;;;;5015758;28;20783;-73
2022/08/11 14:34:11;;;;;;;2.10;0.80;;;;;;;;;;5033955;28;20175;-74
2022/08/11 14:36:39;;;;;;;3.20;1.20;;;;;;;;;;5031483;28;20528;-73
2022/08/11 14:39:11;;;;;;;3.67;1.23;;;;;;;;;;5048351;28;20191;-74
2022/08/11 14:47:31;;;;;;;2.10;1.00;;;;;;;;;;5032316;28;20209;-73
2022/08/11 14:50:01;;;;;;;1.70;0.87;;;;;;;;;;5031196;28;20195;-74
2022/08/11 14:52:49;;;;;;;1.40;0.60;;;;;;;;;;5024256;28;20647;-77
2022/08/11 14:58:17;;;;;;;3.23;0.83;;;;;;;;;;5043092;28;20606;-66
2022/08/11 15:00:44;;;;;;;1.80;0.80;;;;;;;;;;5050363;28;20281;-62
2022/08/11 15:03:11;;;;;;;1.57;0.80;;;;;;;;;;5028573;28;20232;-61
2022/08/11 15:05:40;;;;;;;1.83;0.90;;;;;;;;;;5032433;28;20227;-62
2022/08/11 15:08:53;;;;;;;2.03;0.90;;;;;;;;;;5050325;28;20191;-61
2022/08/11 15:13:55;;;;;;;1.23;0.87;;;;;;;;;;5035462;28;20194;-62
2022/08/11 15:19:07;;;;;;;3.23;1.10;;;;;;;;;;5050212;28;20218;-62
2022/08/11 15:24:19;;;;;;;1.57;0.90;;;;;;;;;;5035444;28;20535;-62
2022/08/11 15:37:51;;;;;;;1.60;1.10;;;;;;;;;;5050043;28;20198;-61
2022/08/11 15:46:02;;;;;;;25.83;2.70;;;;;;;;;;5049882;28;20226;-61
2022/08/11 15:48:40;;;;;;;2.30;1.10;;;;;;;;;;5031208;28;20216;-61
2022/08/11 15:51:30;;;;;;;3.37;1.10;;;;;;;;;;5050125;28;20194;-61
2022/08/11 15:54:20;;;;;;;3.67;1.00;;;;;;;;;;5013409;28;20613;-60
2022/08/11 15:56:50;;;;;;;2.43;1.10;;;;;;;;;;5029379;28;20194;-61
2022/08/11 16:04:55;;;;;;;1.70;1.10;;;;;;;;;;5049427;28;20241;-61
2022/08/11 16:07:25;;;;;;;3.57;1.10;;;;;;;;;;5049138;28;20202;-61
2022/08/11 16:10:09;;;;;;;1.57;1.00;;;;;;;;;;5049649;28;20669;-61
2022/08/11 16:18:40;;;;;;;2.70;1.20;;;;;;;;;;5053465;28;20277;-60
2022/08/11 16:21:07;;;;;;;1.97;1.30;;;;;;;;;;5069405;28;20205;-61
2022/08/11 16:23:52;;;;;;;1.80;1.00;;;;;;;;;;5054210;28;20661;-61
2022/08/11 16:26:21;;;;;;;2.33;1.20;;;;;;;;;;5050894;28;20671;-61
2022/08/11 16:29:09;;;;;;;1.07;0.90;;;;;;;;;;5041223;28;20195;-61
2022/08/11 16:31:35;;;;;;;1.70;1.00;;;;;;;;;;5039246;28;20543;-62
2022/08/11 16:34:03;;;;;;;2.67;1.10;;;;;;;;;;5031101;28;20221;-73
2022/08/11 16:39:19;;;;;;;1.33;1.13;;;;;;;;;;5031893;28;20198;-68
2022/08/11 16:47:19;;;;;;;2.47;1.23;;;;;;;;;;5021585;28;20218;-71
2022/08/11 16:50:06;;;;;;;1.73;1.10;;;;;;;;;;5058999;28;20190;-77
2022/08/11 16:52:33;;;;;;;1.43;0.90;;;;;;;;;;5031282;28;20760;-74
2022/08/11 16:55:02;;;;;;;2.40;1.17;;;;;;;;;;5026296;28;20723;-74
2022/08/11 17:00:16;;;;;;;2.17;1.10;;;;;;;;;;5030665;28;20274;-72
2022/08/11 17:14:13;;;;;;;1.70;1.07;;;;;;;;;;5035300;28;20186;-72
2022/08/11 17:17:02;;;;;;;1.43;1.20;;;;;;;;;;5051064;28;20182;-67
2022/08/11 17:19:30;;;;;;;2.70;1.23;;;;;;;;;;5008932;28;20229;-74
2022/08/11 17:25:05;;;;;;;1.67;1.10;;;;;;;;;;5020754;28;20223;-70
2022/08/11 17:27:31;;;;;;;1.30;1.20;;;;;;;;;;5030878;28;20183;-70
2022/08/11 17:29:59;;;;;;;2.73;1.40;;;;;;;;;;5044441;28;20893;-70
2022/08/11 17:35:32;;;;;;;3.27;1.30;;;;;;;;;;5054413;28;20306;-70
2022/08/11 17:38:15;;;;;;;6.80;3.17;;;;;;;;;;5012755;28;20193;-70
2022/08/11 17:49:21;;;;;;;4.93;2.87;;;;;;;;;;5043801;28;20192;-71
2022/08/11 18:00:13;;;;;;;5.00;1.40;;;;;;;;;;5037623;28;20186;-71
2022/08/11 18:05:26;;;;;;;3.27;1.40;;;;;;;;;;5036529;28;20206;-72
